Terminal Aerodrome Forecast
Issued by NWS Duluth, MN

Home | Current Version | Previous Version | Text Only | Print | Product List | Glossary On
Versions: 1 2 3 4 5 6 7 8 9 10 11 12 13 14 15 16 17 18 19 20 21 22 23 24 25 26 27 28
000
FTUS43 KDLH 201400 AAA
TAFDLH
TAF AMD
KDLH 201406Z 2014/2112 20012KT P6SM FEW040
     FM201800 20014G22KT P6SM SCT050
     FM210200 21012KT P6SM VCTS BKN050CB
      TEMPO 2104/2108 4SM -TSRA BKN025CB
     FM210800 22010KT 3SM BR VCSH SCT015 BKN150
      TEMPO 2108/2112 3/4SM BR BKN007=

USA.gov is the U.S. government's official web portal to all federal, state and local government web resources and services.